createdAt,value
2023-05-19T00:02:00.283Z,3.00
2023-05-19T00:04:28.448Z,3.20
2023-05-19T00:06:59.164Z,3.08
2023-05-19T00:09:27.263Z,2.88
2023-05-19T00:11:56.603Z,3.00
2023-05-19T00:14:24.492Z,2.67
2023-05-19T00:16:53.028Z,2.80
2023-05-19T00:19:22.420Z,2.55
2023-05-19T00:21:49.996Z,2.72
2023-05-19T00:24:17.396Z,3.05
2023-05-19T00:26:44.794Z,2.70
2023-05-19T00:29:13.266Z,2.67
2023-05-19T00:31:40.972Z,3.38
2023-05-19T00:34:09.994Z,3.22
2023-05-19T00:36:38.852Z,2.53
2023-05-19T00:39:06.374Z,2.55
2023-05-19T00:41:33.872Z,2.75
2023-05-19T00:44:01.330Z,2.30
2023-05-19T00:46:30.307Z,2.85
2023-05-19T00:48:57.946Z,2.50
2023-05-19T00:51:27.436Z,2.45
2023-05-19T00:53:56.639Z,2.78
2023-05-19T00:56:24.164Z,2.63
2023-05-19T00:58:52.195Z,2.88
2023-05-19T01:01:21.602Z,3.17
2023-05-19T01:03:51.331Z,2.50
2023-05-19T01:06:22.091Z,2.90
2023-05-19T01:08:51.611Z,2.72
2023-05-19T01:11:21.445Z,2.53
2023-05-19T01:13:49.148Z,2.88
2023-05-19T01:18:56.908Z,2.58
2023-05-19T01:21:58.356Z,2.60
2023-05-19T01:25:17.650Z,2.67
2023-05-19T01:28:16.014Z,2.67
2023-05-19T01:30:52.054Z,3.13
2023-05-19T01:33:22.291Z,3.03
2023-05-19T01:35:51.017Z,3.33
2023-05-19T01:38:20.406Z,3.08
2023-05-19T01:40:50.296Z,2.50
2023-05-19T01:43:20.811Z,3.47
2023-05-19T01:45:51.158Z,3.13
2023-05-19T01:48:19.487Z,2.95
2023-05-19T01:50:47.251Z,3.25
2023-05-19T01:53:16.207Z,2.88
2023-05-19T01:55:47.944Z,2.90
2023-05-19T01:58:20.858Z,3.65
2023-05-19T02:00:56.932Z,2.75
2023-05-19T02:03:42.615Z,3.22
2023-05-19T02:06:19.861Z,3.05
2023-05-19T02:08:57.145Z,2.63
2023-05-19T02:11:36.381Z,3.10
2023-05-19T02:14:12.386Z,3.03
2023-05-19T02:16:45.256Z,2.78
2023-05-19T02:19:21.151Z,2.63
2023-05-19T02:21:48.598Z,3.15
2023-05-19T02:24:16.449Z,3.08
2023-05-19T02:26:44.001Z,3.50
2023-05-19T02:29:11.673Z,3.50
2023-05-19T02:31:39.189Z,3.05
2023-05-19T02:34:08.709Z,3.35
2023-05-19T02:36:40.938Z,3.25
2023-05-19T02:39:09.489Z,3.33
2023-05-19T02:41:37.276Z,3.08
2023-05-19T02:44:05.047Z,3.05
2023-05-19T02:46:33.338Z,3.42
2023-05-19T02:49:01.012Z,3.10
2023-05-19T02:51:29.839Z,3.60
2023-05-19T02:53:57.624Z,3.28
2023-05-19T02:56:25.027Z,3.17
2023-05-19T02:58:52.843Z,3.22
2023-05-19T03:01:25.119Z,2.80
2023-05-19T03:03:52.740Z,3.28
2023-05-19T03:06:23.312Z,3.17
2023-05-19T03:08:52.208Z,3.80
2023-05-19T03:11:19.729Z,3.28
2023-05-19T03:13:47.159Z,2.72
2023-05-19T03:16:14.705Z,3.55
2023-05-19T03:18:43.347Z,3.35
2023-05-19T03:23:38.377Z,3.78
2023-05-19T03:26:07.219Z,3.20
2023-05-19T03:28:34.730Z,2.80
2023-05-19T03:31:03.667Z,2.97
2023-05-19T03:33:36.531Z,3.13
2023-05-19T03:36:04.609Z,3.20
2023-05-19T03:38:36.221Z,3.35
2023-05-19T03:41:04.146Z,3.50
2023-05-19T03:46:06.513Z,2.63
2023-05-19T03:48:51.377Z,3.10
2023-05-19T03:51:56.831Z,3.05
2023-05-19T03:54:36.542Z,2.70
2023-05-19T03:57:05.093Z,3.00
2023-05-19T03:59:35.278Z,3.03
2023-05-19T04:02:04.829Z,3.22
2023-05-19T04:04:32.668Z,2.80
2023-05-19T04:07:00.229Z,3.55
2023-05-19T04:09:27.924Z,3.17
2023-05-19T04:11:55.949Z,3.55
2023-05-19T04:14:25.091Z,3.42
2023-05-19T04:16:54.258Z,2.67
2023-05-19T04:19:21.904Z,3.30
2023-05-19T04:21:49.546Z,3.17
2023-05-19T04:24:17.133Z,3.22
2023-05-19T04:26:47.129Z,3.28
2023-05-19T04:29:17.888Z,3.55
2023-05-19T04:31:45.870Z,3.20
2023-05-19T04:34:14.932Z,3.20
2023-05-19T04:36:42.502Z,2.97
2023-05-19T04:39:12.254Z,3.20
2023-05-19T04:41:44.640Z,3.13
2023-05-19T04:44:13.568Z,3.20
2023-05-19T04:46:42.715Z,2.53
2023-05-19T04:49:12.548Z,3.45
2023-05-19T04:51:42.309Z,3.30
2023-05-19T04:54:10.310Z,2.97
2023-05-19T04:56:37.968Z,3.10
2023-05-19T04:59:06.871Z,3.50
2023-05-19T05:01:34.647Z,3.50
2023-05-19T05:04:02.642Z,3.78
2023-05-19T05:06:31.611Z,3.60
2023-05-19T05:09:00.800Z,3.78
2023-05-19T05:11:29.115Z,4.07
2023-05-19T05:16:28.230Z,3.15
2023-05-19T05:18:58.018Z,2.55
2023-05-19T05:23:54.200Z,3.13
2023-05-19T05:26:30.469Z,3.63
2023-05-19T05:28:57.979Z,3.45
2023-05-19T05:31:25.935Z,3.67
2023-05-19T05:33:53.920Z,3.65
2023-05-19T05:36:25.109Z,3.30
2023-05-19T05:38:52.673Z,4.65
2023-05-19T05:41:20.174Z,2.90
2023-05-19T05:43:50.470Z,3.72
2023-05-19T05:46:18.705Z,3.80
2023-05-19T05:48:47.051Z,3.53
2023-05-19T05:51:15.039Z,3.63
2023-05-19T05:53:44.876Z,4.03
2023-05-19T05:56:14.971Z,3.30
2023-05-19T05:58:50.733Z,4.30
2023-05-19T06:01:18.314Z,3.67
2023-05-19T06:03:46.067Z,3.92
2023-05-19T06:06:18.589Z,3.53
2023-05-19T06:08:46.253Z,4.03
2023-05-19T06:11:13.809Z,3.75
2023-05-19T06:13:42.351Z,3.08
2023-05-19T06:16:16.533Z,3.65
2023-05-19T06:18:46.871Z,4.05
2023-05-19T06:21:14.583Z,4.22
2023-05-19T06:26:11.995Z,3.40
2023-05-19T06:28:39.580Z,3.42
2023-05-19T06:31:07.141Z,3.85
2023-05-19T06:36:17.885Z,3.00
2023-05-19T06:41:13.741Z,3.78
2023-05-19T06:46:14.473Z,3.50
2023-05-19T06:48:44.286Z,3.40
2023-05-19T06:51:15.398Z,3.35
2023-05-19T06:53:42.900Z,3.97
2023-05-19T06:56:10.762Z,3.45
2023-05-19T06:58:40.513Z,3.78
2023-05-19T07:01:08.055Z,3.72
2023-05-19T07:03:42.502Z,3.22
2023-05-19T07:06:13.054Z,3.35
2023-05-19T07:08:40.660Z,3.83
2023-05-19T07:11:08.953Z,3.78
2023-05-19T07:13:36.338Z,3.88
2023-05-19T07:18:32.641Z,3.70
2023-05-19T07:21:00.237Z,3.72
2023-05-19T07:23:29.330Z,3.50
2023-05-19T07:25:57.088Z,3.42
2023-05-19T07:28:24.793Z,3.35
2023-05-19T07:30:53.201Z,3.90
2023-05-19T07:35:48.704Z,3.55
2023-05-19T07:38:16.182Z,3.50
2023-05-19T07:40:45.023Z,4.15
2023-05-19T07:43:12.479Z,4.30
2023-05-19T07:45:40.152Z,3.67
2023-05-19T07:48:07.912Z,3.53
2023-05-19T07:50:35.812Z,4.55
2023-05-19T07:53:03.304Z,3.38
2023-05-19T07:55:30.878Z,3.45
2023-05-19T07:57:59.696Z,3.75
2023-05-19T08:00:27.567Z,3.70
2023-05-19T08:02:56.925Z,3.90
2023-05-19T08:05:26.031Z,4.18
2023-05-19T08:07:53.555Z,3.20
2023-05-19T08:10:21.157Z,3.55
2023-05-19T08:12:48.662Z,3.38
2023-05-19T08:15:18.931Z,3.33
2023-05-19T08:17:46.526Z,3.28
2023-05-19T08:20:15.105Z,3.42
2023-05-19T08:22:42.595Z,3.88
2023-05-19T08:25:10.342Z,4.30
2023-05-19T08:27:37.879Z,3.70
2023-05-19T08:30:07.055Z,3.08
2023-05-19T08:32:36.385Z,4.00
2023-05-19T08:35:04.362Z,3.58
2023-05-19T08:37:34.018Z,3.22
2023-05-19T08:40:01.657Z,4.82
2023-05-19T08:42:29.266Z,4.00
2023-05-19T08:44:56.737Z,4.10
2023-05-19T08:47:25.175Z,4.60
2023-05-19T08:52:33.051Z,3.90
2023-05-19T08:55:04.600Z,3.05
2023-05-19T08:57:32.948Z,3.25
2023-05-19T09:02:29.712Z,3.55
2023-05-19T09:07:27.354Z,3.42
2023-05-19T09:09:54.813Z,3.45
2023-05-19T09:12:22.707Z,2.45
2023-05-19T09:14:50.482Z,2.75
2023-05-19T09:17:18.930Z,3.58
2023-05-19T09:19:49.300Z,3.00
2023-05-19T09:22:21.180Z,2.75
2023-05-19T09:24:49.251Z,2.60
2023-05-19T09:27:22.522Z,2.30
2023-05-19T09:29:50.918Z,2.63
2023-05-19T09:32:25.401Z,2.53
2023-05-19T09:34:53.565Z,2.35
2023-05-19T09:37:24.587Z,2.40
2023-05-19T09:39:53.168Z,2.40
2023-05-19T09:42:25.074Z,2.75
2023-05-19T09:44:59.322Z,2.25
2023-05-19T09:47:27.977Z,2.75
2023-05-19T09:49:55.526Z,2.35
2023-05-19T09:52:24.491Z,2.35
2023-05-19T09:54:55.039Z,2.78
2023-05-19T09:57:27.053Z,2.60
2023-05-19T09:59:56.901Z,2.17
2023-05-19T10:02:26.469Z,2.72
2023-05-19T10:04:55.120Z,3.15
2023-05-19T10:07:24.733Z,3.10
2023-05-19T10:09:55.035Z,2.90
2023-05-19T10:12:26.459Z,2.70
2023-05-19T10:15:00.356Z,2.80
2023-05-19T10:17:28.534Z,4.80
2023-05-19T10:19:56.092Z,2.60
2023-05-19T10:22:25.014Z,2.30
2023-05-19T10:24:52.562Z,3.08
2023-05-19T10:27:20.698Z,3.15
2023-05-19T10:29:50.730Z,2.72
2023-05-19T10:32:22.528Z,3.05
2023-05-19T10:35:24.360Z,2.58
2023-05-19T10:38:04.413Z,2.60
2023-05-19T10:40:37.013Z,2.53
2023-05-19T10:43:22.076Z,2.53
2023-05-19T10:45:52.656Z,3.10
2023-05-19T10:48:21.615Z,2.97
2023-05-19T10:50:52.978Z,2.60
2023-05-19T10:53:22.801Z,3.00
2023-05-19T10:55:52.707Z,3.10
2023-05-19T10:58:36.514Z,3.00
2023-05-19T11:01:08.191Z,2.78
2023-05-19T11:03:47.190Z,2.88
2023-05-19T11:06:24.419Z,3.25
2023-05-19T11:08:58.781Z,3.55
2023-05-19T11:11:27.334Z,3.17
2023-05-19T11:13:56.372Z,3.15
2023-05-19T11:16:28.844Z,3.17
2023-05-19T11:18:58.724Z,3.00
2023-05-19T11:21:41.693Z,3.17
2023-05-19T11:24:10.877Z,3.40
2023-05-19T11:26:43.204Z,2.70
2023-05-19T11:29:11.565Z,3.15
2023-05-19T11:31:39.597Z,3.20
2023-05-19T11:34:08.113Z,3.63
2023-05-19T11:36:36.883Z,3.60
2023-05-19T11:39:05.972Z,3.50
2023-05-19T11:41:39.560Z,3.53
2023-05-19T11:44:10.139Z,3.50
2023-05-19T11:46:38.077Z,3.40
2023-05-19T11:49:06.162Z,3.65
2023-05-19T11:51:33.623Z,3.17
2023-05-19T11:54:03.201Z,3.35
2023-05-19T11:56:35.784Z,3.42
2023-05-19T11:59:03.199Z,3.33
2023-05-19T12:01:33.504Z,3.00
2023-05-19T12:04:01.112Z,3.08
2023-05-19T12:06:29.281Z,3.25
2023-05-19T12:11:24.553Z,4.05
2023-05-19T12:13:55.312Z,3.30
2023-05-19T12:16:23.053Z,3.20
2023-05-19T12:18:50.617Z,3.22
2023-05-19T12:21:18.233Z,3.40
2023-05-19T12:23:45.877Z,2.78
2023-05-19T12:26:13.913Z,3.00
2023-05-19T12:28:41.543Z,3.65
2023-05-19T12:31:11.739Z,3.05
2023-05-19T12:33:39.547Z,3.45
2023-05-19T12:36:08.611Z,3.65
2023-05-19T12:38:39.546Z,3.22
2023-05-19T12:41:07.097Z,3.70
2023-05-19T12:43:35.075Z,3.30
2023-05-19T12:48:41.612Z,3.33
2023-05-19T12:51:09.922Z,3.88
2023-05-19T12:53:38.008Z,3.75
2023-05-19T12:56:12.822Z,3.22
2023-05-19T12:58:40.692Z,3.88
2023-05-19T13:01:15.151Z,4.88
2023-05-19T13:03:44.646Z,3.55
2023-05-19T13:06:12.137Z,3.15
2023-05-19T13:08:41.822Z,5.05
2023-05-19T13:11:09.227Z,3.60
2023-05-19T13:13:37.545Z,3.45
2023-05-19T13:16:05.909Z,3.88
2023-05-19T13:18:35.280Z,4.32
2023-05-19T13:21:05.736Z,3.08
2023-05-19T13:23:34.972Z,3.55
2023-05-19T13:26:04.933Z,3.72
2023-05-19T13:28:32.614Z,3.45
2023-05-19T13:31:00.177Z,4.22
2023-05-19T13:33:27.642Z,3.90
2023-05-19T13:35:55.165Z,3.63
2023-05-19T13:38:23.922Z,3.95
2023-05-19T13:40:51.380Z,3.72
2023-05-19T13:43:18.777Z,3.75
2023-05-19T13:45:46.500Z,3.88
2023-05-19T13:48:14.665Z,4.18
2023-05-19T13:50:42.515Z,3.80
2023-05-19T13:53:11.426Z,3.40
2023-05-19T13:55:40.644Z,3.92
2023-05-19T13:58:10.809Z,4.10
2023-05-19T14:00:38.302Z,3.55
2023-05-19T14:03:05.890Z,4.15
2023-05-19T14:05:33.554Z,4.15
2023-05-19T14:08:01.234Z,3.42
2023-05-19T14:10:28.947Z,4.03
2023-05-19T14:13:29.087Z,3.80
2023-05-19T14:15:47.379Z,3.35
2023-05-19T14:18:16.007Z,3.58
2023-05-19T14:20:43.468Z,3.95
2023-05-19T14:23:11.120Z,3.50
2023-05-19T14:25:38.528Z,3.67
2023-05-19T14:28:07.524Z,3.97
2023-05-19T14:30:35.293Z,4.05
2023-05-19T14:33:03.261Z,3.90
2023-05-19T14:35:30.928Z,3.78
2023-05-19T14:37:58.409Z,3.85
2023-05-19T14:40:25.883Z,3.45
2023-05-19T14:42:53.364Z,3.67
2023-05-19T14:45:22.242Z,3.33
2023-05-19T14:47:49.871Z,3.63
2023-05-19T14:50:17.442Z,4.85
2023-05-19T14:52:44.881Z,4.03
2023-05-19T14:55:12.392Z,3.38
2023-05-19T14:57:39.881Z,3.50
2023-05-19T15:00:11.143Z,3.70
2023-05-19T15:02:40.091Z,3.85
2023-05-19T15:05:08.325Z,4.43
2023-05-19T15:10:04.220Z,3.50
2023-05-19T15:12:31.683Z,2.83
2023-05-19T15:14:59.615Z,3.28
2023-05-19T15:17:27.085Z,3.30
2023-05-19T15:19:55.910Z,3.20
2023-05-19T15:22:23.376Z,3.08
2023-05-19T15:24:50.964Z,4.28
2023-05-19T15:27:18.525Z,3.88
2023-05-19T15:29:46.014Z,3.60
2023-05-19T15:32:13.617Z,3.25
2023-05-19T15:34:41.085Z,3.47
2023-05-19T15:37:10.101Z,3.20
2023-05-19T15:39:37.640Z,4.30
2023-05-19T15:42:05.419Z,3.22
2023-05-19T15:44:32.836Z,2.72
2023-05-19T15:47:00.499Z,2.90
2023-05-19T15:49:27.972Z,3.55
2023-05-19T15:51:55.571Z,3.17
2023-05-19T15:54:25.230Z,3.20
2023-05-19T15:56:52.683Z,3.15
2023-05-19T15:59:20.247Z,3.30
2023-05-19T16:01:48.229Z,4.10
2023-05-19T16:04:17.848Z,3.05
2023-05-19T16:06:45.552Z,2.78
2023-05-19T16:09:13.180Z,3.30
2023-05-19T16:11:41.927Z,3.15
2023-05-19T16:14:09.441Z,2.88
2023-05-19T16:16:39.587Z,3.00
2023-05-19T16:19:07.194Z,2.80
2023-05-19T16:21:34.804Z,2.83
2023-05-19T16:24:02.447Z,3.05
2023-05-19T16:26:30.189Z,3.03
2023-05-19T16:28:59.052Z,2.60
2023-05-19T16:31:26.660Z,4.15
2023-05-19T16:33:54.141Z,2.67
2023-05-19T16:36:22.827Z,2.53
2023-05-19T16:38:50.409Z,2.58
2023-05-19T16:41:17.966Z,2.50
2023-05-19T16:43:45.554Z,2.53
2023-05-19T16:46:14.425Z,3.00
2023-05-19T16:48:41.932Z,2.50
2023-05-19T16:51:09.545Z,2.42
2023-05-19T16:53:37.142Z,2.80
2023-05-19T16:56:05.209Z,2.47
2023-05-19T17:01:00.359Z,2.65
2023-05-19T17:03:30.987Z,2.58
2023-05-19T17:05:58.601Z,2.65
2023-05-19T17:08:26.211Z,2.63
2023-05-19T17:10:53.664Z,2.17
2023-05-19T17:13:21.372Z,2.35
2023-05-19T17:15:52.492Z,2.53
2023-05-19T17:18:19.955Z,2.90
2023-05-19T17:20:48.833Z,2.60
2023-05-19T17:23:16.853Z,2.40
2023-05-19T17:28:11.687Z,3.20
2023-05-19T17:30:40.146Z,2.53
2023-05-19T17:33:07.760Z,2.33
2023-05-19T17:35:35.365Z,2.22
2023-05-19T17:38:04.192Z,2.70
2023-05-19T17:40:32.307Z,2.53
2023-05-19T17:42:59.995Z,2.20
2023-05-19T17:45:27.686Z,1.73
2023-05-19T17:47:55.174Z,2.50
2023-05-19T17:50:22.650Z,2.38
2023-05-19T17:52:50.895Z,2.40
2023-05-19T17:55:20.951Z,1.98
2023-05-19T17:57:49.306Z,2.53
2023-05-19T18:00:17.485Z,2.17
2023-05-19T18:02:45.988Z,2.15
2023-05-19T18:05:14.898Z,2.40
2023-05-19T18:07:42.715Z,2.30
2023-05-19T18:10:11.821Z,2.30
2023-05-19T18:12:41.064Z,2.00
2023-05-19T18:15:09.171Z,2.25
2023-05-19T18:17:36.879Z,3.00
2023-05-19T18:20:05.299Z,2.67
2023-05-19T18:22:32.837Z,2.88
2023-05-19T18:25:00.296Z,3.55
2023-05-19T18:27:27.905Z,2.75
2023-05-19T18:29:56.764Z,2.78
2023-05-19T18:32:24.292Z,2.38
2023-05-19T18:34:52.092Z,2.90
2023-05-19T18:37:19.713Z,2.40
2023-05-19T18:39:47.208Z,2.67
2023-05-19T18:42:14.738Z,2.95
2023-05-19T18:44:46.683Z,3.08
2023-05-19T18:47:15.902Z,3.20
2023-05-19T18:49:43.705Z,2.40
2023-05-19T18:52:11.647Z,2.53
2023-05-19T18:54:40.507Z,2.88
2023-05-19T18:57:08.385Z,3.15
2023-05-19T18:59:35.954Z,2.90
2023-05-19T19:02:03.549Z,3.42
2023-05-19T19:04:32.918Z,3.03
2023-05-19T19:07:01.260Z,2.97
2023-05-19T19:09:28.768Z,2.95
2023-05-19T19:11:56.311Z,3.63
2023-05-19T19:14:23.914Z,3.15
2023-05-19T19:16:51.468Z,3.67
2023-05-19T19:19:19.153Z,3.35
2023-05-19T19:21:48.386Z,3.70
2023-05-19T19:24:16.117Z,3.72
2023-05-19T19:26:43.848Z,3.75
2023-05-19T19:29:11.384Z,3.60
2023-05-19T19:31:39.507Z,3.97
2023-05-19T19:34:09.196Z,3.97
2023-05-19T19:36:36.765Z,3.75
2023-05-19T19:39:05.546Z,3.75
2023-05-19T19:41:34.749Z,3.70
2023-05-19T19:44:02.367Z,3.95
2023-05-19T19:46:29.933Z,4.45
2023-05-19T19:49:00.704Z,4.22
2023-05-19T19:51:28.481Z,4.32
2023-05-19T19:53:55.948Z,4.05
2023-05-19T19:56:26.182Z,3.95
2023-05-19T19:58:55.234Z,4.32
2023-05-19T20:01:27.246Z,4.55
2023-05-19T20:03:55.831Z,4.60
2023-05-19T20:06:23.647Z,4.63
2023-05-19T20:08:51.236Z,4.10
2023-05-19T20:11:19.897Z,5.32
2023-05-19T20:13:48.778Z,3.78
2023-05-19T20:16:16.324Z,4.40
2023-05-19T20:18:43.892Z,4.60
2023-05-19T20:21:11.520Z,4.10
2023-05-19T20:23:40.627Z,4.32
2023-05-19T20:26:13.204Z,4.07
2023-05-19T20:28:41.582Z,4.63
2023-05-19T20:31:10.749Z,4.20
2023-05-19T20:33:38.217Z,4.40
2023-05-19T20:36:07.124Z,5.13
2023-05-19T20:38:34.639Z,5.38
2023-05-19T20:41:02.226Z,5.50
2023-05-19T20:43:29.713Z,5.50
2023-05-19T20:45:57.205Z,5.13
2023-05-19T20:48:26.055Z,4.55
2023-05-19T20:50:54.409Z,5.18
2023-05-19T20:55:49.560Z,5.15
2023-05-19T20:58:17.308Z,5.65
2023-05-19T21:00:44.844Z,5.80
2023-05-19T21:03:12.365Z,5.65
2023-05-19T21:05:41.220Z,6.10
2023-05-19T21:08:12.882Z,5.43
2023-05-19T21:10:40.958Z,4.80
2023-05-19T21:13:08.548Z,4.57
2023-05-19T21:15:36.117Z,5.53
2023-05-19T21:18:03.879Z,4.95
2023-05-19T21:20:31.517Z,5.03
2023-05-19T21:23:00.687Z,5.22
2023-05-19T21:25:28.123Z,4.82
2023-05-19T21:27:56.114Z,5.10
2023-05-19T21:30:23.829Z,4.78
2023-05-19T21:32:51.427Z,5.15
2023-05-19T21:35:18.954Z,5.15
2023-05-19T21:37:46.499Z,5.32
2023-05-19T21:40:15.505Z,6.30
2023-05-19T21:42:42.977Z,7.28
2023-05-19T21:45:11.162Z,6.90
2023-05-19T21:47:38.633Z,8.18
2023-05-19T21:50:07.437Z,5.75
2023-05-19T21:52:36.340Z,5.13
2023-05-19T21:55:04.356Z,5.28
2023-05-19T21:57:33.283Z,5.53
2023-05-19T22:00:00.809Z,5.20
2023-05-19T22:02:28.374Z,4.68
2023-05-19T22:04:56.140Z,4.55
2023-05-19T22:07:26.958Z,5.05
2023-05-19T22:09:54.505Z,4.68
2023-05-19T22:12:23.062Z,5.25
2023-05-19T22:14:51.893Z,4.15
2023-05-19T22:17:19.317Z,5.30
2023-05-19T22:19:46.805Z,5.75
2023-05-19T22:22:14.841Z,5.22
2023-05-19T22:24:42.446Z,5.72
2023-05-19T22:27:10.006Z,5.72
2023-05-19T22:29:38.627Z,6.82
2023-05-19T22:32:17.957Z,7.03
2023-05-19T22:34:46.450Z,7.65
2023-05-19T22:37:14.025Z,8.60
2023-05-19T22:39:41.421Z,8.25
2023-05-19T22:42:09.026Z,8.45
2023-05-19T22:44:36.445Z,8.20
2023-05-19T22:47:04.157Z,7.38
2023-05-19T22:49:33.106Z,7.90
2023-05-19T22:52:00.939Z,7.40
2023-05-19T22:54:28.421Z,6.60
2023-05-19T22:56:55.943Z,6.55
2023-05-19T22:59:23.493Z,6.20
2023-05-19T23:01:51.018Z,5.70
2023-05-19T23:04:18.466Z,6.07
2023-05-19T23:06:47.529Z,6.60
2023-05-19T23:09:15.992Z,5.88
2023-05-19T23:14:10.875Z,6.07
2023-05-19T23:19:06.539Z,6.45
2023-05-19T23:21:34.134Z,5.85
2023-05-19T23:24:03.152Z,6.10
2023-05-19T23:26:30.707Z,5.75
2023-05-19T23:28:58.167Z,6.63
2023-05-19T23:31:25.855Z,5.75
2023-05-19T23:33:54.196Z,6.28
2023-05-19T23:36:23.061Z,6.25
2023-05-19T23:38:50.969Z,6.35
2023-05-19T23:41:19.852Z,6.35
2023-05-19T23:43:47.366Z,5.97
2023-05-19T23:46:15.100Z,6.22
2023-05-19T23:48:42.593Z,5.80
2023-05-19T23:51:10.053Z,6.68
2023-05-19T23:53:37.647Z,6.15
2023-05-19T23:56:05.990Z,5.95
2023-05-19T23:58:34.842Z,6.43
